Time;durP1;ratioP1;P1;durP2;ratioP2;P2;SDS_P1;SDS_P2;PMS_P1;PMS_P2;Temp;Humidity;BMP_temperature;BMP_pressure;BME280_temperature;BME280_humidity;BME280_pressure;Samples;Min_cycle;Max_cycle;Signal;HPM_P1;HPM_P2
2022/05/23 00:00:17;;;;;;;;;;;;;;;15.52;100.00;95128.59;1026796;28;19918;-73
2022/05/23 00:00:48;;;;;;;;;;;;;;;15.49;100.00;95123.16;1030944;28;20282;-73
2022/05/23 00:01:18;;;;;;;;;;;;;;;15.49;100.00;95123.16;1031300;28;19918;-73
2022/05/23 00:01:49;;;;;;;;;;;;;;;15.46;100.00;95129.88;1026873;28;20411;-73
2022/05/23 00:02:19;;;;;;;;;;;;;;;15.46;100.00;95123.78;1014992;29;19915;-73
2022/05/23 00:02:49;;;;;;;;;;;;;;;15.46;100.00;95121.13;1026679;28;19918;-72
2022/05/23 00:03:23;;;;;;;;;;;;;;;15.45;100.00;95124.88;1039074;28;19917;-73
2022/05/23 00:03:53;;;;;;;;;;;;;;;15.44;100.00;95118.03;1034972;28;19952;-73
2022/05/23 00:04:23;;;;;;;;;;;;;;;15.43;100.00;95124.41;1022993;29;20482;-73
2022/05/23 00:04:54;;;;;;;;;;;;;;;15.40;100.00;95120.50;1026860;28;19918;-73
2022/05/23 00:05:25;;;;;;;;;;;;;;;15.40;100.00;95119.75;1030921;28;20335;-72
2022/05/23 00:05:55;;;;;;;;;;;;;;;15.39;100.00;95120.81;1026855;28;20431;-73
2022/05/23 00:06:25;;;;;;;;;;;;;;;15.38;100.00;95124.53;1030731;28;19921;-72
2022/05/23 00:06:59;;;;;;;;;;;;;;;15.36;100.00;95124.06;1026775;28;20315;-73
2022/05/23 00:07:33;;;;;;;;;;;;;;;15.35;100.00;95111.94;1023016;29;19919;-73
2022/05/23 00:08:04;;;;;;;;;;;;;;;15.35;100.00;95122.50;1030646;28;19949;-72
2022/05/23 00:08:34;;;;;;;;;;;;;;;15.34;100.00;95121.75;1026813;28;19981;-73
2022/05/23 00:09:04;;;;;;;;;;;;;;;15.33;100.00;95123.63;1022898;29;20001;-73
2022/05/23 00:09:34;;;;;;;;;;;;;;;15.32;100.00;95124.72;1030348;28;19941;-73
2022/05/23 00:10:05;;;;;;;;;;;;;;;15.32;100.00;95123.91;1030615;28;20362;-72
2022/05/23 00:10:35;;;;;;;;;;;;;;;15.31;100.00;95117.84;1019253;29;19918;-73
2022/05/23 00:11:06;;;;;;;;;;;;;;;15.30;100.00;95126.88;1022917;29;20380;-74
2022/05/23 00:11:36;;;;;;;;;;;;;;;15.30;100.00;95126.09;1032423;28;19929;-72
2022/05/23 00:12:07;;;;;;;;;;;;;;;15.28;100.00;95123.75;1030859;28;19937;-71
2022/05/23 00:12:37;;;;;;;;;;;;;;;15.27;100.00;95121.41;1030760;28;20347;-73
2022/05/23 00:13:08;;;;;;;;;;;;;;;15.27;100.00;95121.41;1030903;28;20288;-71
2022/05/23 00:13:38;;;;;;;;;;;;;;;15.26;100.00;95125.16;1022849;28;20373;-73
2022/05/23 00:14:08;;;;;;;;;;;;;;;15.26;100.00;95120.63;1026814;28;20383;-72
2022/05/23 00:14:41;;;;;;;;;;;;;;;15.26;100.00;95125.94;1022787;29;19968;-73
2022/05/23 00:15:12;;;;;;;;;;;;;;;15.24;100.00;95122.81;1030624;28;20074;-73
2022/05/23 00:15:42;;;;;;;;;;;;;;;15.21;100.00;95118.13;1035286;28;20429;-73
2022/05/23 00:16:24;;;;;;;;;;;;;;;15.20;100.00;95131.66;1034993;28;19921;-73
2022/05/23 00:16:55;;;;;;;;;;;;;;;15.20;100.00;95126.38;1026790;28;19914;-72
2022/05/23 00:17:25;;;;;;;;;;;;;;;15.19;100.00;95130.88;1026882;28;19918;-73
2022/05/23 00:17:55;;;;;;;;;;;;;;;15.19;100.00;95133.53;1033077;28;19940;-72
2022/05/23 00:18:26;;;;;;;;;;;;;;;15.19;100.00;95130.88;1026616;28;20320;-74
2022/05/23 00:18:56;;;;;;;;;;;;;;;15.16;100.00;95134.13;1026767;28;20013;-73
2022/05/23 00:19:27;;;;;;;;;;;;;;;15.16;100.00;95136.78;1026847;28;19910;-71
2022/05/23 00:19:57;;;;;;;;;;;;;;;15.18;100.00;95142.53;1026056;28;20376;-73
2022/05/23 00:20:27;;;;;;;;;;;;;;;15.17;100.00;95138.34;1026881;28;19922;-73
2022/05/23 00:20:58;;;;;;;;;;;;;;;15.18;100.00;95142.53;1026778;28;20030;-73
2022/05/23 00:21:28;;;;;;;;;;;;;;;15.19;100.00;95146.75;1026995;28;20335;-73
2022/05/23 00:21:58;;;;;;;;;;;;;;;15.19;100.00;95141.47;1030839;28;19973;-73
2022/05/23 00:22:29;;;;;;;;;;;;;;;15.20;100.00;95137.72;1030995;28;19925;-72
2022/05/23 00:22:59;;;;;;;;;;;;;;;15.21;100.00;95141.13;1030628;28;20387;-73
2022/05/23 00:23:32;;;;;;;;;;;;;;;15.21;100.00;95143.78;1022746;29;19926;-74
2022/05/23 00:24:03;;;;;;;;;;;;;;;15.22;100.00;95138.19;1019026;29;20015;-73
2022/05/23 00:24:33;;;;;;;;;;;;;;;15.21;100.00;95139.28;1026918;28;19918;-73
2022/05/23 00:25:04;;;;;;;;;;;;;;;15.23;100.00;95139.75;1026740;28;19926;-73
2022/05/23 00:25:34;;;;;;;;;;;;;;;15.22;100.00;95146.09;1026625;28;19957;-72
2022/05/23 00:26:05;;;;;;;;;;;;;;;15.23;100.00;95142.41;1026931;28;19918;-73
2022/05/23 00:26:35;;;;;;;;;;;;;;;15.23;100.00;95137.09;1022950;29;19919;-73
2022/05/23 00:27:09;;;;;;;;;;;;;;;15.17;100.00;95138.34;1018784;29;19918;-74
2022/05/23 00:27:42;;;;;;;;;;;;;;;15.24;100.00;95140.53;1022260;29;19973;-73
2022/05/23 00:28:12;;;;;;;;;;;;;;;15.25;100.00;95132.28;1026791;28;19926;-73
2022/05/23 00:28:43;;;;;;;;;;;;;;;15.28;100.00;95142.25;1019854;29;19922;-73
2022/05/23 00:29:13;;;;;;;;;;;;;;;15.28;100.00;95136.97;1030661;28;20402;-73
2022/05/23 00:29:44;;;;;;;;;;;;;;;15.28;100.00;95138.81;1032553;28;20036;-72
2022/05/23 00:30:17;;;;;;;;;;;;;;;15.28;100.00;95136.97;1026858;28;19922;-73
2022/05/23 00:30:47;;;;;;;;;;;;;;;15.31;100.00;95133.69;1031127;28;19917;-73
2022/05/23 00:31:17;;;;;;;;;;;;;;;15.32;100.00;95129.19;1035292;28;19905;-73
2022/05/23 00:35:18;;;;;;;;;;;;;;;15.40;100.00;95122.38;1035158;28;20314;-73
2022/05/23 00:35:50;;;;;;;;;;;;;;;15.40;100.00;95119.75;1037962;28;20497;-73
2022/05/23 00:36:20;;;;;;;;;;;;;;;15.42;100.00;95120.19;1035292;28;19988;-72
2022/05/23 00:36:51;;;;;;;;;;;;;;;15.41;100.00;95113.34;1027026;28;20418;-73
2022/05/23 00:37:21;;;;;;;;;;;;;;;15.42;100.00;95123.63;1026832;28;19915;-73
2022/05/23 00:37:52;;;;;;;;;;;;;;;15.42;100.00;95123.63;1023178;28;19914;-73
2022/05/23 00:38:23;;;;;;;;;;;;;;;15.41;100.00;95118.66;1023833;28;19913;-73
2022/05/23 00:38:56;;;;;;;;;;;;;;;15.42;100.00;95120.19;1031470;28;19913;-73
2022/05/23 00:39:26;;;;;;;;;;;;;;;15.43;100.00;95119.13;1023155;28;19919;-72
2022/05/23 00:39:56;;;;;;;;;;;;;;;15.42;100.00;95126.25;1025638;28;20501;-74
2022/05/23 00:40:29;;;;;;;;;;;;;;;15.43;100.00;95116.47;1031689;28;19910;-72
2022/05/23 00:43:34;;;;;;;;;;;;;;;15.43;100.00;95117.25;1034871;28;19973;-73
2022/05/23 00:44:04;;;;;;;;;;;;;;;15.43;100.00;95116.47;1031235;28;19918;-72
2022/05/23 00:44:34;;;;;;;;;;;;;;;15.44;100.00;95123.31;1031094;28;20295;-72
2022/05/23 00:45:05;;;;;;;;;;;;;;;15.43;100.00;95113.84;1026980;28;20379;-73
2022/05/23 00:45:35;;;;;;;;;;;;;;;15.41;100.00;95118.66;1031019;28;19906;-75
2022/05/23 00:46:08;;;;;;;;;;;;;;;15.40;100.00;95120.50;1038936;28;19909;-73
2022/05/23 00:46:48;;;;;;;;;;;;;;;15.40;100.00;95114.47;1031673;28;20012;-73
2022/05/23 00:47:19;;;;;;;;;;;;;;;15.41;100.00;95118.66;1033600;28;19906;-73
2022/05/23 00:47:52;;;;;;;;;;;;;;;15.37;100.00;95118.47;1035386;28;19914;-73
2022/05/23 00:48:24;;;;;;;;;;;;;;;15.37;100.00;95115.84;1035410;28;19985;-72
2022/05/23 00:48:57;;;;;;;;;;;;;;;15.38;100.00;95119.25;1031601;28;19905;-72
2022/05/23 00:49:29;;;;;;;;;;;;;;;15.38;100.00;95116.63;1031644;28;19913;-73
2022/05/23 00:49:59;;;;;;;;;;;;;;;15.37;100.00;95115.84;1027779;28;19965;-73
2022/05/23 00:50:31;;;;;;;;;;;;;;;15.35;100.00;95118.00;1028248;28;19982;-73
2022/05/23 00:51:02;;;;;;;;;;;;;;;15.35;100.00;95119.88;1027359;28;19925;-73
2022/05/23 00:51:33;;;;;;;;;;;;;;;15.36;100.00;95118.78;1023561;28;19918;-72
2022/05/23 00:52:04;;;;;;;;;;;;;;;15.32;100.00;95119.41;1027595;28;19938;-74
2022/05/23 00:52:42;;;;;;;;;;;;;;;15.30;100.00;95121.59;1028334;28;19915;-73
2022/05/23 00:53:12;;;;;;;;;;;;;;;15.29;100.00;95120.03;1038220;28;20019;-73
2022/05/23 00:53:50;;;;;;;;;;;;;;;15.31;100.00;95112.56;1031899;28;20477;-73
2022/05/23 00:54:20;;;;;;;;;;;;;;;15.29;100.00;95119.22;1033585;28;20003;-73
2022/05/23 00:54:51;;;;;;;;;;;;;;;15.29;100.00;95119.22;1036560;28;20358;-73
2022/05/23 00:55:25;;;;;;;;;;;;;;;15.26;100.00;95112.72;1035929;28;19909;-73
2022/05/23 00:55:57;;;;;;;;;;;;;;;15.27;100.00;95111.63;1036523;28;19918;-74
2022/05/23 00:56:30;;;;;;;;;;;;;;;15.26;100.00;95115.34;1031660;28;20741;-73
2022/05/23 00:57:01;;;;;;;;;;;;;;;15.25;100.00;95105.06;1028969;28;20057;-72
2022/05/23 00:57:33;;;;;;;;;;;;;;;15.25;100.00;95119.06;1027723;28;19961;-73
2022/05/23 00:58:05;;;;;;;;;;;;;;;15.24;100.00;95117.50;1028287;28;20482;-73
2022/05/23 00:58:36;;;;;;;;;;;;;;;15.22;100.00;95119.69;1027647;28;19914;-73
2022/05/23 00:59:07;;;;;;;;;;;;;;;15.23;100.00;95115.19;1028416;28;19914;-73
2022/05/23 00:59:37;;;;;;;;;;;;;;;15.22;100.00;95114.38;1027550;28;20282;-73
2022/05/23 01:00:08;;;;;;;;;;;;;;;15.22;100.00;95109.09;1029837;28;19949;-72
2022/05/23 01:00:38;;;;;;;;;;;;;;;15.20;100.00;95113.94;1027470;28;19910;-73
2022/05/23 01:01:09;;;;;;;;;;;;;;;15.18;100.00;95110.81;1027558;28;20503;-72
2022/05/23 01:01:42;;;;;;;;;;;;;;;15.19;100.00;95115.03;1026732;28;20423;-73
2022/05/23 01:02:12;;;;;;;;;;;;;;;15.19;100.00;95115.03;1028850;28;19914;-73
2022/05/23 01:02:43;;;;;;;;;;;;;;;15.18;100.00;95108.16;1031748;28;20008;-72
2022/05/23 01:03:16;;;;;;;;;;;;;;;15.15;100.00;95113.28;1026071;28;19915;-73
2022/05/23 01:03:50;;;;;;;;;;;;;;;15.18;100.00;95112.69;1031618;28;19961;-73
2022/05/23 01:04:20;;;;;;;;;;;;;;;15.17;100.00;95111.91;1028401;28;20633;-72
2022/05/23 01:04:51;;;;;;;;;;;;;;;15.19;100.00;95114.22;1029193;28;19939;-73
2022/05/23 01:05:21;;;;;;;;;;;;;;;15.18;100.00;95112.69;1031624;28;19914;-73
2022/05/23 01:05:54;;;;;;;;;;;;;;;15.15;100.00;95108.00;1031529;28;19956;-73
2022/05/23 01:06:24;;;;;;;;;;;;;;;15.15;100.00;95113.28;1032446;28;19969;-74
2022/05/23 01:06:54;;;;;;;;;;;;;;;15.13;100.00;95118.88;1039256;28;20535;-73
2022/05/23 01:07:25;;;;;;;;;;;;;;;15.12;100.00;95114.66;1039811;28;19909;-72
2022/05/23 01:07:55;;;;;;;;;;;;;;;15.12;100.00;95114.66;1039806;28;19909;-72
2022/05/23 01:08:26;;;;;;;;;;;;;;;15.13;100.00;95104.91;1038646;28;20012;-73
2022/05/23 01:08:57;;;;;;;;;;;;;;;15.14;100.00;95107.22;1035710;28;19909;-73
2022/05/23 01:09:27;;;;;;;;;;;;;;;15.15;100.00;95111.41;1031511;28;19940;-72
2022/05/23 01:09:58;;;;;;;;;;;;;;;15.14;100.00;95101.94;1030939;28;19957;-73
2022/05/23 01:10:28;;;;;;;;;;;;;;;15.13;100.00;95102.25;1031601;28;19918;-73
2022/05/23 01:10:59;;;;;;;;;;;;;;;15.12;100.00;95103.31;1027397;28;20419;-74
2022/05/23 01:11:29;;;;;;;;;;;;;;;15.13;100.00;95104.91;1027510;28;20391;-73
2022/05/23 01:11:59;;;;;;;;;;;;;;;15.11;100.00;95102.56;1027638;28;19914;-73
2022/05/23 01:12:30;;;;;;;;;;;;;;;15.10;100.00;95106.28;1031609;28;19984;-73
2022/05/23 01:13:01;;;;;;;;;;;;;;;15.08;100.00;95098.66;1031442;28;20561;-72
2022/05/23 01:13:32;;;;;;;;;;;;;;;15.07;100.00;95097.09;1035270;28;20478;-73
2022/05/23 01:14:02;;;;;;;;;;;;;;;15.08;100.00;95097.88;1023650;29;19911;-73
2022/05/23 01:14:45;;;;;;;;;;;;;;;15.08;100.00;95100.53;1028222;28;19996;-73
2022/05/23 01:15:22;;;;;;;;;;;;;;;15.06;100.00;95100.06;1035504;28;19917;-73
2022/05/23 01:15:52;;;;;;;;;;;;;;;15.05;100.00;95096.63;1034244;28;19973;-73
2022/05/23 01:16:24;;;;;;;;;;;;;;;15.03;100.00;95096.16;1029120;28;19914;-73
2022/05/23 01:16:54;;;;;;;;;;;;;;;15.03;100.00;95092.75;1032426;28;19961;-73
2022/05/23 01:17:24;;;;;;;;;;;;;;;15.03;100.00;95100.69;1026399;28;19914;-73
2022/05/23 01:17:55;;;;;;;;;;;;;;;15.00;100.00;95096.78;1023460;28;20380;-74
2022/05/23 01:18:25;;;;;;;;;;;;;;;14.98;100.00;95100.78;1021021;28;20599;-73
2022/05/23 01:18:55;;;;;;;;;;;;;;;14.97;100.00;95096.59;1023596;28;20402;-73
2022/05/23 01:19:28;;;;;;;;;;;;;;;14.98;100.00;95092.88;1031489;28;19914;-73
2022/05/23 01:19:58;;;;;;;;;;;;;;;14.99;100.00;95089.13;1039150;28;20302;-72
2022/05/23 01:20:29;;;;;;;;;;;;;;;14.98;100.00;95092.88;1039778;28;19955;-72
2022/05/23 01:21:00;;;;;;;;;;;;;;;14.97;100.00;95086.03;1035713;28;19916;-73
2022/05/23 01:21:52;;;;;;;;;;;;;;;14.97;100.00;95086.03;1031401;28;20335;-73
2022/05/23 01:22:31;;;;;;;;;;;;;;;15.00;100.00;95085.44;1026365;28;19974;-73
2022/05/23 01:23:07;;;;;;;;;;;;;;;14.99;100.00;95089.13;1031516;28;19937;-72
2022/05/23 01:23:56;;;;;;;;;;;;;;;14.96;100.00;95079.97;1037766;28;19917;-72
2022/05/23 01:24:29;;;;;;;;;;;;;;;14.97;100.00;95086.81;1040027;28;20374;-72
2022/05/23 01:24:59;;;;;;;;;;;;;;;14.97;100.00;95080.75;1035647;28;19913;-73
2022/05/23 01:25:31;;;;;;;;;;;;;;;14.96;100.00;95079.97;1035569;28;19968;-73
2022/05/23 01:26:02;;;;;;;;;;;;;;;14.95;100.00;95077.63;1039528;28;20007;-73
2022/05/23 01:26:32;;;;;;;;;;;;;;;14.98;100.00;95079.66;1035935;28;19976;-72
2022/05/23 01:27:04;;;;;;;;;;;;;;;14.96;100.00;95074.69;1039780;28;19971;-73
2022/05/23 01:27:34;;;;;;;;;;;;;;;14.98;100.00;95074.38;1030797;28;19961;-72
2022/05/23 01:28:04;;;;;;;;;;;;;;;14.98;100.00;95072.50;1032010;28;19913;-73
2022/05/23 01:28:37;;;;;;;;;;;;;;;15.01;100.00;95065.84;1035523;28;19910;-72
2022/05/23 01:29:12;;;;;;;;;;;;;;;15.01;100.00;95063.97;1035818;28;19910;-73
2022/05/23 01:29:44;;;;;;;;;;;;;;;15.01;100.00;95061.34;1037938;28;20015;-73
2022/05/23 01:30:15;;;;;;;;;;;;;;;15.03;100.00;95058.41;1039672;28;19909;-73
2022/05/23 01:30:45;;;;;;;;;;;;;;;15.04;100.00;95057.31;1036431;28;20417;-73
2022/05/23 01:31:16;;;;;;;;;;;;;;;15.04;100.00;95054.66;1039712;28;19967;-73
2022/05/23 01:31:46;;;;;;;;;;;;;;;15.04;100.00;95052.78;1035222;28;19914;-72
2022/05/23 01:32:17;;;;;;;;;;;;;;;15.06;100.00;95058.56;1031728;28;19945;-72
2022/05/23 01:32:47;;;;;;;;;;;;;;;15.07;100.00;95059.34;1027170;28;19910;-73
2022/05/23 01:33:18;;;;;;;;;;;;;;;15.08;100.00;95050.31;1027666;28;20454;-73
2022/05/23 01:33:48;;;;;;;;;;;;;;;15.09;100.00;95051.91;1019294;29;19914;-73
2022/05/23 01:34:18;;;;;;;;;;;;;;;15.10;100.00;95056.09;1025735;28;19921;-73
2022/05/23 01:34:49;;;;;;;;;;;;;;;15.11;100.00;95049.69;1031575;28;20307;-72
2022/05/23 01:35:20;;;;;;;;;;;;;;;15.12;100.00;95045.97;1031836;28;19948;-72
2022/05/23 01:35:50;;;;;;;;;;;;;;;15.13;100.00;95047.53;1035171;28;19910;-72
2022/05/23 01:36:21;;;;;;;;;;;;;;;15.14;100.00;95045.66;1031826;28;19917;-73
2022/05/23 01:36:51;;;;;;;;;;;;;;;15.14;100.00;95049.09;1035552;28;19910;-73
2022/05/23 01:37:21;;;;;;;;;;;;;;;15.15;100.00;95048.00;1035659;28;20268;-73
2022/05/23 01:37:51;;;;;;;;;;;;;;;15.16;100.00;95041.66;1035301;28;19909;-72
2022/05/23 01:38:22;;;;;;;;;;;;;;;15.16;100.00;95041.66;1039644;28;19976;-72
2022/05/23 01:38:52;;;;;;;;;;;;;;;15.16;100.00;95041.66;1039713;28;19951;-73
2022/05/23 01:39:25;;;;;;;;;;;;;;;15.18;100.00;95043.97;1035496;28;19960;-73
2022/05/23 01:39:55;;;;;;;;;;;;;;;15.18;100.00;95039.44;1033732;28;19916;-73
2022/05/23 01:40:26;;;;;;;;;;;;;;;15.19;100.00;95035.75;1031516;28;20410;-73
2022/05/23 01:40:59;;;;;;;;;;;;;;;15.18;100.00;95038.69;1032626;28;19929;-73
2022/05/23 01:41:30;;;;;;;;;;;;;;;15.19;100.00;95041.03;1031405;28;20481;-73
2022/05/23 01:42:00;;;;;;;;;;;;;;;15.20;100.00;95033.88;1031873;28;19914;-73
2022/05/23 01:42:31;;;;;;;;;;;;;;;15.20;100.00;95032.00;1035463;28;20367;-73
2022/05/23 01:43:01;;;;;;;;;;;;;;;15.20;100.00;95034.66;1035567;28;19913;-73
2022/05/23 01:43:31;;;;;;;;;;;;;;;15.21;100.00;95022.97;1039606;28;19915;-73
2022/05/23 01:44:02;;;;;;;;;;;;;;;15.22;100.00;95024.53;1039417;28;20453;-72
2022/05/23 01:44:33;;;;;;;;;;;;;;;15.24;100.00;95025.00;1039571;28;20002;-72
2022/05/23 01:45:03;;;;;;;;;;;;;;;15.23;100.00;95031.38;1035565;28;20610;-72
2022/05/23 01:45:34;;;;;;;;;;;;;;;15.24;100.00;95027.66;1035902;28;20007;-73
2022/05/23 01:46:05;;;;;;;;;;;;;;;15.25;100.00;95023.91;1041000;28;19916;-73
2022/05/23 01:46:35;;;;;;;;;;;;;;;15.26;100.00;95030.00;1043907;28;19958;-73
2022/05/23 01:47:09;;;;;;;;;;;;;;;15.26;100.00;95025.50;1044195;28;19929;-73
2022/05/23 01:47:39;;;;;;;;;;;;;;;15.27;100.00;95020.97;1035328;28;19928;-73
2022/05/23 01:48:10;;;;;;;;;;;;;;;15.27;100.00;95029.69;1035387;28;19928;-72
2022/05/23 01:48:40;;;;;;;;;;;;;;;15.29;100.00;95027.50;1031530;28;19956;-72
2022/05/23 01:49:10;;;;;;;;;;;;;;;15.29;100.00;95027.50;1031384;28;19915;-74
2022/05/23 01:49:41;;;;;;;;;;;;;;;15.30;100.00;95028.28;1026957;28;19917;-73
2022/05/23 01:50:11;;;;;;;;;;;;;;;15.30;100.00;95023.78;1035194;28;19933;-73
2022/05/23 01:50:41;;;;;;;;;;;;;;;15.31;100.00;95016.63;1035352;28;19996;-72
2022/05/23 01:51:12;;;;;;;;;;;;;;;15.33;100.00;95025.81;1035343;28;19917;-72
2022/05/23 01:51:42;;;;;;;;;;;;;;;15.33;100.00;95025.81;1039487;28;19948;-72
2022/05/23 01:52:13;;;;;;;;;;;;;;;15.36;100.00;95031.53;1035454;28;19910;-73
2022/05/23 01:52:43;;;;;;;;;;;;;;;15.36;100.00;95023.59;1031578;28;19981;-72
2022/05/23 01:53:13;;;;;;;;;;;;;;;15.36;100.00;95027.06;1031153;28;19906;-74
2022/05/23 01:53:45;;;;;;;;;;;;;;;15.36;100.00;95035.00;1031879;28;19914;-72
2022/05/23 01:54:15;;;;;;;;;;;;;;;15.38;100.00;95032.03;1030093;28;19996;-73
2022/05/23 01:54:48;;;;;;;;;;;;;;;15.38;100.00;95032.03;1036020;28;19906;-72
2022/05/23 01:55:19;;;;;;;;;;;;;;;15.37;100.00;95038.41;1039527;28;20439;-72
2022/05/23 01:55:49;;;;;;;;;;;;;;;15.37;100.00;95033.88;1036140;28;19912;-73
2022/05/23 01:56:19;;;;;;;;;;;;;;;15.37;100.00;95030.47;1035766;28;20378;-73
2022/05/23 01:56:49;;;;;;;;;;;;;;;15.38;100.00;95037.31;1035740;28;19955;-72
2022/05/23 01:57:20;;;;;;;;;;;;;;;15.37;100.00;95036.53;1027586;28;19902;-73
2022/05/23 01:57:50;;;;;;;;;;;;;;;15.39;100.00;95044.13;1022928;28;19929;-73
2022/05/23 02:01:13;;;;;;;;;;;;;;;15.39;100.00;95038.84;1031248;28;19913;-73
2022/05/23 02:01:40;;;;;;;;;;;;;;;15.38;100.00;95034.66;1039637;28;19905;-73
2022/05/23 02:02:11;;;;;;;;;;;;;;;15.38;100.00;95039.94;1031483;28;20352;-73
2022/05/23 02:02:47;;;;;;;;;;;;;;;15.38;100.00;95042.59;1028707;28;19910;-73
2022/05/23 02:03:18;;;;;;;;;;;;;;;15.38;100.00;95047.88;1032490;28;19910;-72
2022/05/23 02:03:51;;;;;;;;;;;;;;;15.37;100.00;95039.19;1032534;28;19902;-72
2022/05/23 02:04:21;;;;;;;;;;;;;;;15.37;100.00;95039.19;1035685;28;19905;-72
2022/05/23 02:04:52;;;;;;;;;;;;;;;15.38;100.00;95043.38;1034596;28;19929;-73
2022/05/23 02:05:25;;;;;;;;;;;;;;;15.38;100.00;95043.38;1028566;28;19913;-73
2022/05/23 02:05:55;;;;;;;;;;;;;;;15.38;100.00;95047.88;1031728;28;20012;-73
2022/05/23 02:06:25;;;;;;;;;;;;;;;15.38;100.00;95042.59;1032368;28;19910;-75
2022/05/23 02:06:56;;;;;;;;;;;;;;;15.38;100.00;95047.88;1036100;28;19912;-72
2022/05/23 02:07:26;;;;;;;;;;;;;;;15.38;100.00;95047.88;1036113;28;19901;-73
2022/05/23 02:07:56;;;;;;;;;;;;;;;15.38;100.00;95047.88;1039901;28;19912;-73
2022/05/23 02:08:27;;;;;;;;;;;;;;;15.37;100.00;95047.09;1039711;28;19905;-73
2022/05/23 02:08:57;;;;;;;;;;;;;;;15.36;100.00;95044.75;1027766;28;20279;-73
2022/05/23 02:09:27;;;;;;;;;;;;;;;15.36;100.00;95042.91;1031523;28;20383;-72
2022/05/23 02:09:58;;;;;;;;;;;;;;;15.37;100.00;95046.34;1032704;28;19902;-73
2022/05/23 02:10:29;;;;;;;;;;;;;;;15.37;100.00;95041.03;1031837;28;19906;-72
2022/05/23 02:10:59;;;;;;;;;;;;;;;15.36;100.00;95048.19;1039699;28;19921;-72
2022/05/23 02:11:29;;;;;;;;;;;;;;;15.36;100.00;95050.84;1039914;28;19928;-73
2022/05/23 02:12:00;;;;;;;;;;;;;;;15.35;100.00;95048.50;1044258;28;19913;-72
2022/05/23 02:12:30;;;;;;;;;;;;;;;15.36;100.00;95056.13;1044008;28;19952;-72
2022/05/23 02:13:02;;;;;;;;;;;;;;;15.36;100.00;95050.03;1044180;28;20352;-72
2022/05/23 02:13:33;;;;;;;;;;;;;;;15.34;100.00;95047.72;1040390;28;20711;-73
2022/05/23 02:14:04;;;;;;;;;;;;;;;15.36;100.00;95052.69;1040262;28;19917;-73
2022/05/23 02:14:34;;;;;;;;;;;;;;;15.36;100.00;95050.03;1040058;28;19909;-73
2022/05/23 02:15:05;;;;;;;;;;;;;;;15.35;100.00;95054.56;1031631;28;19910;-73
2022/05/23 02:15:35;;;;;;;;;;;;;;;15.33;100.00;95057.53;1031535;28;20411;-73
2022/05/23 02:16:05;;;;;;;;;;;;;;;15.34;100.00;95053.00;1028010;28;20009;-73
2022/05/23 02:16:36;;;;;;;;;;;;;;;15.31;100.00;95049.13;1032379;28;19953;-73
2022/05/23 02:17:09;;;;;;;;;;;;;;;15.31;100.00;95057.03;1039969;28;19967;-72
2022/05/23 02:17:40;;;;;;;;;;;;;;;15.30;100.00;95055.50;1039773;28;19913;-73
2022/05/23 02:18:10;;;;;;;;;;;;;;;15.30;100.00;95049.44;1035725;28;19945;-73
2022/05/23 02:18:40;;;;;;;;;;;;;;;15.28;100.00;95049.72;1039978;28;19968;-73
2022/05/23 02:19:10;;;;;;;;;;;;;;;15.28;100.00;95055.00;1039905;28;19913;-72
2022/05/23 02:19:44;;;;;;;;;;;;;;;15.27;100.00;95056.09;1035038;28;20418;-72
2022/05/23 02:20:14;;;;;;;;;;;;;;;15.26;100.00;95056.44;1030941;28;19914;-73
2022/05/23 02:20:44;;;;;;;;;;;;;;;15.25;100.00;95045.06;1027824;28;19910;-73
2022/05/23 02:21:16;;;;;;;;;;;;;;;15.24;100.00;95048.78;1028247;28;19921;-73
2022/05/23 02:21:46;;;;;;;;;;;;;;;15.25;100.00;95049.56;1029084;28;19918;-72
2022/05/23 02:22:17;;;;;;;;;;;;;;;15.24;100.00;95048.03;1035745;28;19917;-73
2022/05/23 02:22:47;;;;;;;;;;;;;;;15.23;100.00;95049.88;1035832;28;19935;-73
2022/05/23 02:23:17;;;;;;;;;;;;;;;15.25;100.00;95049.56;1031712;28;20263;-73
2022/05/23 02:23:48;;;;;;;;;;;;;;;15.25;100.00;95044.28;1035583;28;19913;-73
2022/05/23 02:24:18;;;;;;;;;;;;;;;15.25;100.00;95044.28;1035703;28;20565;-73
2022/05/23 02:24:48;;;;;;;;;;;;;;;15.23;100.00;95039.31;1031810;28;19917;-73
2022/05/23 02:25:19;;;;;;;;;;;;;;;15.23;100.00;95036.69;1036121;28;19913;-73
2022/05/23 02:25:49;;;;;;;;;;;;;;;15.22;100.00;95035.09;1031461;28;19922;-72
2022/05/23 02:26:19;;;;;;;;;;;;;;;15.21;100.00;95033.56;1031725;28;19913;-74
2022/05/23 02:26:50;;;;;;;;;;;;;;;15.22;100.00;95034.31;1035855;28;19965;-73
2022/05/23 02:27:23;;;;;;;;;;;;;;;15.22;100.00;95027.16;1030939;28;19986;-75
2022/05/23 02:27:54;;;;;;;;;;;;;;;15.23;100.00;95026.09;1028578;28;20479;-75
2022/05/23 02:28:25;;;;;;;;;;;;;;;15.23;100.00;95030.63;1032444;28;20538;-73
2022/05/23 02:28:55;;;;;;;;;;;;;;;15.24;100.00;95024.22;1032703;28;20379;-73
2022/05/23 02:29:26;;;;;;;;;;;;;;;15.24;100.00;95026.88;1040442;28;19917;-74
2022/05/23 02:29:56;;;;;;;;;;;;;;;15.24;100.00;95022.38;1043397;28;20332;-74
2022/05/23 02:30:30;;;;;;;;;;;;;;;15.24;100.00;95022.38;1031751;28;19910;-72
2022/05/23 02:31:00;;;;;;;;;;;;;;;15.25;100.00;95025.78;1030634;28;19921;-73
2022/05/23 02:31:30;;;;;;;;;;;;;;;15.25;100.00;95029.19;1031717;28;19913;-73
2022/05/23 02:32:01;;;;;;;;;;;;;;;15.24;100.00;95027.66;1032083;28;19984;-73
2022/05/23 02:32:31;;;;;;;;;;;;;;;15.24;100.00;95022.38;1031523;28;19961;-73
2022/05/23 02:33:01;;;;;;;;;;;;;;;15.22;100.00;95019.25;1035712;28;19989;-73
2022/05/23 02:33:32;;;;;;;;;;;;;;;15.22;100.00;95019.25;1035858;28;20390;-74
2022/05/23 02:34:05;;;;;;;;;;;;;;;15.22;100.00;95024.53;1035446;28;19914;-72
2022/05/23 02:34:36;;;;;;;;;;;;;;;15.23;100.00;95022.69;1035313;28;19941;-73
2022/05/23 02:35:07;;;;;;;;;;;;;;;15.22;100.00;95013.94;1031814;28;19914;-73
2022/05/23 02:35:37;;;;;;;;;;;;;;;15.22;100.00;95013.19;1036260;28;19917;-73
2022/05/23 02:36:08;;;;;;;;;;;;;;;15.22;100.00;95024.53;1039798;28;20424;-73
2022/05/23 02:36:38;;;;;;;;;;;;;;;15.22;100.00;95018.47;1043945;28;19917;-73
2022/05/23 02:37:08;;;;;;;;;;;;;;;15.22;100.00;95019.25;1043801;28;20286;-72
2022/05/23 02:37:39;;;;;;;;;;;;;;;15.22;100.00;95013.94;1029306;28;20283;-73
2022/05/23 02:38:09;;;;;;;;;;;;;;;15.21;100.00;95022.97;1023492;28;20419;-73
2022/05/23 02:38:40;;;;;;;;;;;;;;;15.21;100.00;95019.56;1023658;29;20357;-73
2022/05/23 02:39:10;;;;;;;;;;;;;;;15.20;100.00;95020.66;1019711;28;19915;-73
2022/05/23 02:39:40;;;;;;;;;;;;;;;15.19;100.00;95017.25;1027096;28;19910;-73
2022/05/23 02:40:11;;;;;;;;;;;;;;;15.20;100.00;95024.06;1034706;28;19914;-74
2022/05/23 02:40:41;;;;;;;;;;;;;;;15.18;100.00;95018.31;1043939;28;19913;-72
2022/05/23 02:41:11;;;;;;;;;;;;;;;15.19;100.00;95019.88;1043783;28;19917;-74
2022/05/23 02:41:42;;;;;;;;;;;;;;;15.18;100.00;95023.59;1035845;28;19915;-73
2022/05/23 02:42:12;;;;;;;;;;;;;;;15.18;100.00;95023.59;1031461;28;19917;-73
2022/05/23 02:42:43;;;;;;;;;;;;;;;15.19;100.00;95025.16;1028851;28;20387;-73
2022/05/23 02:43:13;;;;;;;;;;;;;;;15.19;100.00;95022.53;1027770;28;19914;-73
2022/05/23 02:43:43;;;;;;;;;;;;;;;15.19;100.00;95025.16;1031640;28;19914;-73
2022/05/23 02:44:14;;;;;;;;;;;;;;;15.19;100.00;95019.88;1031599;28;19925;-73
2022/05/23 02:44:46;;;;;;;;;;;;;;;15.20;100.00;95029.38;1027631;28;19940;-73
2022/05/23 02:45:16;;;;;;;;;;;;;;;15.20;100.00;95032.00;1027998;28;19918;-73
2022/05/23 02:45:49;;;;;;;;;;;;;;;15.19;100.00;95021.72;1028280;28;19918;-73
2022/05/23 02:46:20;;;;;;;;;;;;;;;15.18;100.00;95020.94;1032287;28;19972;-73
2022/05/23 02:46:50;;;;;;;;;;;;;;;15.20;100.00;95016.16;1035482;28;19909;-73
2022/05/23 02:47:20;;;;;;;;;;;;;;;15.18;100.00;95015.66;1036084;28;19905;-73
2022/05/23 02:47:51;;;;;;;;;;;;;;;15.19;100.00;95014.59;1039531;28;19913;-73
2022/05/23 02:48:21;;;;;;;;;;;;;;;15.19;100.00;95004.03;1039850;28;19916;-73
2022/05/23 02:48:52;;;;;;;;;;;;;;;15.21;100.00;95007.13;1039856;28;19943;-73